EGACEGNM

Guest
Details From EGAC - Belfast City
To EGNM - Leeds Bradford
Flight Number -
Tags decoded
Created
Modified
Stats Distance 155 nm / 286 km
Max Altitude 0 ft / 0 m
Waypoints 2
Social Downloads 2
Likes 0
Share VATSIM

Download

Looking for another format? Having issues loading an existing format? Contact us
Advertisement - Login to hide

Notes

Requested: EGAC EGNM

Route

EGAC EGNM

ID Type Via Altitude Latitude Longitude Leg Dist Tot Dist Heading (true) Name
O EGAC APT - 0 ft / 0 m 54.61811˚ -5.87258˚ - 0 nm - Belfast City
O EGNM APT - 0 ft / 0 m 53.86603˚ -1.66078˚ 154 nm 154 nm 105° / 109° Leeds Bradford

Altitude Profile

Advertisement - Login to hide

EGAC

Details ICAO EGAC (BHD)
Name Belfast City
Region United Kingdom
Timezone Europe/London (UTC+0.0)
Stats Elevation 15 ft / 5 m (AMSL)
Location 54.618108° -5.872575°
Runways 1
Magnetic Variation 3.090° W

METAR

EGAC 150020Z AUTO 33017KT 4900 RA BKN028/// 05/04 Q0991

Decode

TAF

Not found

Departure Runways

ID Width Length Bearing (true) Bearing (mag) Surface Threshold Offset Overrun Length
04 148 ft / 45 m 6,009 ft / 1,832 m 34.93° 38.02° Asphalt 302 ft / 92 m 0 ft / 0 m
22 148 ft / 45 m 6,009 ft / 1,832 m 214.94° 218.03° Asphalt 0 ft / 0 m 0 ft / 0 m

EGNM

Details ICAO EGNM (LBA)
Name Leeds Bradford
Region United Kingdom
Timezone Europe/London (UTC+0.0)
Stats Elevation 681 ft / 208 m (AMSL)
Location 53.866027° -1.660778°
Runways 1
Magnetic Variation 1.298° W

METAR

EGNM 150020Z 29008KT 9999 FEW010 SCT030 01/00 Q0986

Decode

TAF

TAF TAF EGNM 142252Z 1500/1524 27006KT 9999 SCT018 TEMPO 1500/1515 2000 SHRASN BKN008 PROB30 TEMPO 1500/1515 0800 SHSN BKN001 BECMG 1503/1506 33010KT PROB30 TEMPO 1507/1515 33015G25KT

Decode

Destination Runways

ID Width Length Bearing (true) Bearing (mag) Surface Threshold Offset Overrun Length
14 151 ft / 46 m 7,377 ft / 2,248 m 137.79° 139.09° Concrete 1,024 ft / 312 m 46 ft / 14 m
32 151 ft / 46 m 7,377 ft / 2,248 m 317.81° 319.11° Concrete 899 ft / 274 m 49 ft / 15 m

Approach Navaids

Runway Type Ident Frequency Range Bearing (true) Bearing (mag) Slope Elevation
14 Localiser ILBF 110.90 MHz 18 nm / 33 km 137.73° 139.02° - 681 ft / 208 m (AMSL)
14 Glidescope ILBF 110.90 MHz 10 nm / 19 km 137.80° 139.10° 3.50° 681 ft / 208 m (AMSL)
14 DME ILBF 110.90 MHz 18 nm / 33 km - - - 681 ft / 208 m (AMSL)
32 Localiser ILF 110.90 MHz 18 nm / 33 km 317.80° 319.10° - 681 ft / 208 m (AMSL)
32 Glidescope ILF 110.90 MHz 10 nm / 19 km 317.80° 319.10° 3.00° 681 ft / 208 m (AMSL)
32 DME ILF 110.90 MHz 18 nm / 33 km - - - 687 ft / 209 m (AMSL)

Popular Alternatives